Weather History for KEAR - April, 2013

Change the Weather History Date:

Friday, April 19, 2013

  Actual Average Record
Temperature  
Mean Temperature 38 °F 50 °F  
Max Temperature 50 °F 63 °F 88 °F (1987)
Min Temperature 25 °F 37 °F 20 °F (1966)
Degree Days  
Heating Degree Days 27 15  
Month to date heating degree days 350  
Since 1 July heating degree days 6122  
Moisture  
Dew Point 24 °F    
Average Humidity 64    
Maximum Humidity 88    
Minimum Humidity 39    
Precipitation  
Precipitation 0.00 in - 2.70 in (1933)
Sea Level Pressure  
Sea Level Pressure 30.01 in    
Wind  
Wind Speed 12 mph (NW)    
Max Wind Speed 21 mph    
Max Gust Speed 28 mph    
Visibility 10 miles    
Events      
T = Trace of Precipitation, MM = Missing Value Source: NWS Daily Summary

Daily Weather History Graph

Daily Weather History Graph

Search for Another Location

Airport or City:

Trip Planner

Search our weather history database for the weather conditions in past years. The results will help you decide how hot, cold, wet, or windy it might be!

Date:

Astronomy

Apr. 19, 2013 Rise Set
Actual Time 6:50 AM CDT 8:19 PM CDT
Civil Twilight 6:22 AM CDT 8:48 PM CDT
Nautical Twilight 5:47 AM CDT 9:23 PM CDT
Astronomical Twilight 5:11 AM CDT 10:00 PM CDT
Moon 2:04 PM CDT (4/19) 3:09 AM CDT (4/19)
Length of Visible Light 14h 26m
Length of Day
13h 29m
First Quarter, 62% of the Moon is Illuminated
Apr 19
First Quarter
Apr 25
Full
May 2
Last Quarter
May 9
New
May 17
First Quarter

Hourly Weather History & Observations

Time (CDT) Temp. Windchill Dew Point Humidity Pressure Visibility Wind Dir Wind Speed Gust Speed Precip Events Conditions
12:15 AM 28.4 °F 19.1 °F 24.8 °F 86% 30.00 in 10.0 mi West 10.4 mph - N/A   Clear
12:35 AM 28.4 °F 19.1 °F 23.0 °F 80% 30.00 in 10.0 mi West 10.4 mph - N/A   Clear
12:55 AM 28.4 °F 18.5 °F 23.0 °F 80% 30.00 in 10.0 mi West 11.5 mph - N/A   Clear
1:15 AM 28.4 °F 19.1 °F 23.0 °F 80% 30.00 in 10.0 mi West 10.4 mph - N/A   Clear
1:35 AM 26.6 °F 15.7 °F 23.0 °F 86% 30.00 in 10.0 mi West 12.7 mph - N/A   Clear
1:55 AM 26.6 °F 16.8 °F 23.0 °F 86% 29.99 in 10.0 mi West 10.4 mph - N/A   Clear
2:15 AM 28.4 °F 18.5 °F 23.0 °F 80% 29.99 in 10.0 mi West 11.5 mph - N/A   Clear
2:35 AM 26.6 °F 16.8 °F 21.2 °F 80% 29.99 in 10.0 mi West 10.4 mph - N/A   Clear
2:55 AM 26.6 °F 16.8 °F 21.2 °F 80% 29.98 in 10.0 mi West 10.4 mph 18.4 mph N/A   Clear
3:15 AM 26.6 °F 16.2 °F 21.2 °F 80% 29.98 in 10.0 mi West 11.5 mph - N/A   Clear
3:35 AM 26.6 °F 16.8 °F 21.2 °F 80% 29.98 in 10.0 mi West 10.4 mph - N/A   Clear
3:55 AM 26.6 °F 18.2 °F 21.2 °F 80% 29.98 in 10.0 mi WNW 8.1 mph - N/A   Clear
4:15 AM 26.6 °F 17.5 °F 21.2 °F 80% 29.98 in 10.0 mi West 9.2 mph - N/A   Clear
4:35 AM 24.8 °F 16.1 °F 21.2 °F 86% 29.98 in 10.0 mi WNW 8.1 mph - N/A   Clear
4:55 AM 24.8 °F 15.3 °F 21.2 °F 86% 29.98 in 10.0 mi West 9.2 mph - N/A   Clear
5:15 AM 26.6 °F 16.8 °F 19.4 °F 74% 29.98 in 10.0 mi West 10.4 mph - N/A   Clear
5:35 AM 26.6 °F 16.2 °F 19.4 °F 74% 29.98 in 10.0 mi West 11.5 mph - N/A   Clear
5:55 AM 26.6 °F 15.7 °F 19.4 °F 74% 29.98 in 10.0 mi West 12.7 mph - N/A   Clear
6:15 AM 26.6 °F 16.8 °F 19.4 °F 74% 29.98 in 10.0 mi West 10.4 mph - N/A   Clear
6:35 AM 26.6 °F 17.5 °F 19.4 °F 74% 29.98 in 10.0 mi West 9.2 mph - N/A   Clear
6:55 AM 24.8 °F 14.0 °F 19.4 °F 80% 29.98 in 10.0 mi West 11.5 mph - N/A   Clear
7:15 AM 26.6 °F 17.5 °F 19.4 °F 74% 29.98 in 10.0 mi West 9.2 mph - N/A   Clear
7:35 AM 26.6 °F 17.5 °F 19.4 °F 74% 29.98 in 10.0 mi West 9.2 mph - N/A   Clear
7:55 AM 28.4 °F 19.7 °F 19.4 °F 69% 29.98 in 10.0 mi West 9.2 mph - N/A   Clear
8:15 AM 30.2 °F 21.3 °F 21.2 °F 69% 29.98 in 10.0 mi West 10.4 mph - N/A   Mostly Cloudy
8:35 AM 30.2 °F 21.9 °F 21.2 °F 69% 29.98 in 10.0 mi West 9.2 mph - N/A   Overcast
8:55 AM 32.0 °F 24.8 °F 23.0 °F 69% 29.98 in 10.0 mi WNW 8.1 mph - N/A   Overcast
9:15 AM 32.0 °F 24.2 °F 23.0 °F 69% 29.98 in 10.0 mi West 9.2 mph - N/A   Overcast
9:35 AM 33.8 °F 26.4 °F 23.0 °F 65% 29.98 in 10.0 mi West 9.2 mph - N/A   Overcast
9:55 AM 33.8 °F 26.4 °F 23.0 °F 65% 29.99 in 10.0 mi West 9.2 mph - N/A   Overcast
10:15 AM 35.6 °F 28.0 °F 24.8 °F 65% 29.99 in 10.0 mi WNW 10.4 mph - N/A   Scattered Clouds
10:35 AM 37.4 °F 29.8 °F 24.8 °F 60% 29.99 in 10.0 mi West 11.5 mph - N/A   Partly Cloudy
10:55 AM 39.2 °F 31.6 °F 24.8 °F 56% 29.99 in 10.0 mi West 12.7 mph 20.7 mph N/A   Scattered Clouds
11:15 AM 39.2 °F 31.2 °F 24.8 °F 56% 30.00 in 10.0 mi WNW 13.8 mph - N/A   Clear
11:35 AM 41.0 °F 34.3 °F 26.6 °F 57% 30.00 in 10.0 mi WNW 11.5 mph - N/A   Clear
11:55 AM 42.8 °F 36.2 °F 26.6 °F 53% 30.00 in 10.0 mi NW 12.7 mph 18.4 mph N/A   Partly Cloudy
12:15 PM 42.8 °F 35.4 °F 28.4 °F 57% 30.00 in 10.0 mi NW 15.0 mph 21.9 mph N/A   Mostly Cloudy
12:35 PM 44.6 °F 36.6 °F 28.4 °F 53% 30.00 in 10.0 mi NW 19.6 mph 23.0 mph N/A   Mostly Cloudy
12:55 PM 44.6 °F 36.6 °F 28.4 °F 53% 30.01 in 10.0 mi NW 19.6 mph 26.5 mph N/A   Mostly Cloudy
1:15 PM 46.4 °F 39.2 °F 30.2 °F 53% 30.00 in 10.0 mi NW 18.4 mph 24.2 mph N/A   Scattered Clouds
1:35 PM 46.4 °F 39.5 °F 28.4 °F 50% 30.00 in 10.0 mi NNW 17.3 mph 23.0 mph N/A   Partly Cloudy
1:55 PM 48.2 °F - 28.4 °F 46% 29.99 in 10.0 mi NW 19.6 mph 26.5 mph N/A   Mostly Cloudy
2:15 PM 48.2 °F - 24.8 °F 40% 29.99 in 10.0 mi NNW 24.2 mph 27.6 mph N/A   Mostly Cloudy
2:35 PM 48.2 °F - 24.8 °F 40% 29.99 in 10.0 mi NNW 25.3 mph 29.9 mph N/A   Scattered Clouds
2:55 PM 48.2 °F - 24.8 °F 40% 30.00 in 10.0 mi NNW 19.6 mph - N/A   Clear
3:15 PM 50.0 °F - 24.8 °F 37% 30.00 in 10.0 mi NNW 23.0 mph 26.5 mph N/A   Scattered Clouds
3:35 PM 48.2 °F - 24.8 °F 40% 30.00 in 10.0 mi NW 20.7 mph 26.5 mph N/A   Overcast
3:55 PM 46.4 °F 39.2 °F 26.6 °F 46% 30.00 in 10.0 mi NW 18.4 mph 27.6 mph N/A   Overcast
4:15 PM 46.4 °F 39.2 °F 26.6 °F 46% 30.00 in 10.0 mi NW 18.4 mph 23.0 mph N/A   Overcast
4:35 PM 46.4 °F 39.5 °F 26.6 °F 46% 30.00 in 10.0 mi NW 17.3 mph - N/A   Overcast
4:55 PM 48.2 °F - 26.6 °F 43% 30.00 in 10.0 mi NNW 20.7 mph 24.2 mph N/A   Overcast
5:15 PM 48.2 °F - 24.8 °F 40% 30.00 in 10.0 mi NNW 19.6 mph 25.3 mph N/A   Mostly Cloudy
5:35 PM 48.2 °F - 24.8 °F 40% 30.01 in 10.0 mi NW 17.3 mph 21.9 mph N/A   Mostly Cloudy
5:55 PM 46.4 °F 40.7 °F 24.8 °F 43% 30.02 in 10.0 mi NNW 12.7 mph - N/A   Mostly Cloudy
6:15 PM 46.4 °F 41.5 °F 23.0 °F 40% 30.02 in 10.0 mi NNW 10.4 mph - N/A   Scattered Clouds
6:35 PM 46.4 °F 41.1 °F 24.8 °F 43% 30.02 in 10.0 mi NW 11.5 mph 17.3 mph N/A   Partly Cloudy
6:55 PM 46.4 °F 40.1 °F 24.8 °F 43% 30.02 in 10.0 mi NNW 15.0 mph - N/A   Partly Cloudy
7:15 PM 46.4 °F 41.9 °F 24.8 °F 43% 30.02 in 10.0 mi North 9.2 mph - N/A   Partly Cloudy
7:35 PM 44.6 °F 40.2 °F 26.6 °F 49% 30.02 in 10.0 mi NNW 8.1 mph - N/A   Clear
7:55 PM 44.6 °F 41.4 °F 24.8 °F 46% 30.03 in 10.0 mi NNW 5.8 mph - N/A   Clear
8:15 PM 42.8 °F 39.3 °F 26.6 °F 53% 30.04 in 10.0 mi NNW 5.8 mph - N/A   Clear
8:35 PM 42.8 °F 38.0 °F 26.6 °F 53% 30.04 in 10.0 mi North 8.1 mph - N/A   Clear
8:55 PM 37.4 °F 32.1 °F 26.6 °F 65% 30.04 in 10.0 mi NNE 6.9 mph - N/A   Clear
9:15 PM 35.6 °F 28.6 °F 24.8 °F 65% 30.05 in 10.0 mi NE 9.2 mph - N/A   Clear
9:35 PM 33.8 °F 27.7 °F 24.8 °F 70% 30.06 in 10.0 mi NE 6.9 mph - N/A   Clear
9:55 PM 33.8 °F 28.6 °F 26.6 °F 75% 30.07 in 10.0 mi ENE 5.8 mph - N/A   Clear
10:15 PM 33.8 °F 27.0 °F 24.8 °F 70% 30.07 in 10.0 mi ENE 8.1 mph - N/A   Clear
10:35 PM 32.0 °F 25.6 °F 24.8 °F 75% 30.07 in 10.0 mi ENE 6.9 mph - N/A   Clear
10:55 PM 32.0 °F 25.6 °F 24.8 °F 75% 30.07 in 10.0 mi ENE 6.9 mph - N/A   Clear
11:15 PM 30.2 °F 23.4 °F 24.8 °F 80% 30.07 in 10.0 mi East 6.9 mph - N/A   Clear
11:35 PM 30.2 °F 23.4 °F 24.8 °F 80% 30.07 in 10.0 mi East 6.9 mph - N/A   Clear
11:55 PM 30.2 °F 23.4 °F 24.8 °F 80% 30.07 in 10.0 mi East 6.9 mph - N/A   Clear